Time;durP1;ratioP1;P1;durP2;ratioP2;P2;SDS_P1;SDS_P2;PMS_P1;PMS_P2;Temp;Humidity;BMP_temperature;BMP_pressure;BME280_temperature;BME280_humidity;BME280_pressure;Samples;Min_cycle;Max_cycle;Signal;HPM_P1;HPM_P2
2021/03/28 00:01:41;;;;;;;9.23;5.00;;;24.00;35.70;;;;;;6107323;28;80917;-66
2021/03/28 00:04:42;;;;;;;7.68;4.85;;;24.00;35.70;;;;;;6106289;28;81269;-67
2021/03/28 00:07:42;;;;;;;8.20;4.90;;;24.00;35.90;;;;;;6101774;28;80929;-66
2021/03/28 00:10:43;;;;;;;9.50;5.53;;;23.90;35.30;;;;;;6105349;28;80452;-66
2021/03/28 00:13:43;;;;;;;8.02;4.85;;;24.00;35.40;;;;;;6104814;28;82131;-68
2021/03/28 00:16:44;;;;;;;7.18;4.80;;;24.00;35.50;;;;;;6099856;28;80788;-66
2021/03/28 00:19:44;;;;;;;9.45;4.65;;;24.00;35.40;;;;;;6106299;28;80507;-66
2021/03/28 00:22:45;;;;;;;7.18;4.35;;;24.00;35.30;;;;;;6104134;28;84327;-66
2021/03/28 00:25:46;;;;;;;8.30;5.28;;;24.00;35.10;;;;;;6106428;28;80966;-67
2021/03/28 00:28:46;;;;;;;8.65;4.20;;;23.90;35.20;;;;;;6109114;28;81003;-66
2021/03/28 00:31:47;;;;;;;9.43;5.05;;;23.90;34.90;;;;;;6105178;28;80487;-66
2021/03/28 00:34:47;;;;;;;8.77;5.32;;;23.90;35.60;;;;;;6102989;28;80718;-67
2021/03/28 00:37:48;;;;;;;7.30;4.90;;;23.90;35.00;;;;;;6104868;28;82867;-66
2021/03/28 00:40:48;;;;;;;7.57;4.35;;;23.90;35.00;;;;;;6106039;28;80947;-66
2021/03/28 00:43:49;;;;;;;7.78;4.82;;;23.90;34.60;;;;;;6106902;28;83251;-66
2021/03/28 00:46:49;;;;;;;8.10;4.40;;;23.90;34.90;;;;;;6102218;28;80651;-66
2021/03/28 00:49:50;;;;;;;7.20;4.22;;;23.90;35.30;;;;;;6104784;28;83406;-66
2021/03/28 00:52:50;;;;;;;8.57;4.75;;;23.90;34.80;;;;;;6106217;28;80704;-67
2021/03/28 00:55:51;;;;;;;9.02;5.22;;;23.90;34.90;;;;;;6103243;28;83426;-66
2021/03/28 00:58:52;;;;;;;8.80;4.10;;;23.90;35.00;;;;;;6077796;28;83586;-66
2021/03/28 01:02:14;;;;;;;8.90;4.85;;;23.90;34.90;;;;;;6102854;28;84953;-66
2021/03/28 01:05:14;;;;;;;5.75;3.95;;;23.90;35.20;;;;;;6103134;28;81300;-65
2021/03/28 01:08:15;;;;;;;6.28;4.35;;;23.90;35.20;;;;;;6101715;28;82508;-65
2021/03/28 01:11:15;;;;;;;8.38;5.18;;;23.90;34.80;;;;;;6087449;28;80847;-65
2021/03/28 01:14:16;;;;;;;7.90;4.65;;;23.90;34.90;;;;;;6104178;28;80597;-66
2021/03/28 01:17:16;;;;;;;6.90;4.50;;;23.90;35.30;;;;;;6104086;28;80849;-66
2021/03/28 01:20:17;;;;;;;8.02;4.15;;;23.90;34.40;;;;;;6104556;28;83004;-66
2021/03/28 01:23:18;;;;;;;8.30;4.82;;;23.90;34.70;;;;;;6109822;28;80518;-66
2021/03/28 01:26:18;;;;;;;9.63;5.28;;;23.90;34.80;;;;;;6103817;28;80586;-66
2021/03/28 01:29:28;;;;;;;7.15;4.63;;;23.90;34.80;;;;;;6104094;28;81718;-66
2021/03/28 01:32:28;;;;;;;8.45;4.70;;;23.90;34.80;;;;;;6103642;28;80591;-65
2021/03/28 01:35:29;;;;;;;9.05;4.75;;;23.90;34.70;;;;;;6101861;28;83384;-66
2021/03/28 01:38:29;;;;;;;7.15;5.07;;;23.90;34.50;;;;;;6104377;28;80313;-65
2021/03/28 01:41:30;;;;;;;7.47;4.32;;;23.90;34.80;;;;;;6101506;28;82223;-65
2021/03/28 01:44:30;;;;;;;10.73;4.85;;;23.80;34.50;;;;;;6105681;28;80861;-65
2021/03/28 01:47:31;;;;;;;7.32;4.78;;;23.90;34.80;;;;;;6105513;28;80644;-65
2021/03/28 01:50:32;;;;;;;7.47;4.13;;;23.90;34.40;;;;;;6104192;28;80983;-65
2021/03/28 01:53:32;;;;;;;9.85;4.43;;;23.90;34.40;;;;;;6104171;28;80821;-65
2021/03/28 01:56:33;;;;;;;7.68;4.90;;;23.90;34.50;;;;;;6102210;28;80628;-65
2021/03/28 01:59:33;;;;;;;8.77;4.53;;;23.80;34.20;;;;;;6102702;28;80521;-65
2021/03/28 02:02:34;;;;;;;7.25;4.65;;;23.80;34.00;;;;;;6104915;28;81468;-65
2021/03/28 02:05:34;;;;;;;7.03;4.38;;;23.80;33.60;;;;;;6108826;28;80428;-67
2021/03/28 02:08:35;;;;;;;6.80;4.80;;;23.80;34.10;;;;;;6107661;28;80599;-66
2021/03/28 02:11:36;;;;;;;7.38;4.05;;;23.80;34.00;;;;;;6105727;28;80499;-66
2021/03/28 02:14:36;;;;;;;8.35;4.10;;;23.80;33.60;;;;;;6107573;28;82591;-66
2021/03/28 02:17:37;;;;;;;8.48;4.30;;;23.80;33.70;;;;;;6108207;28;81753;-66
2021/03/28 02:20:39;;;;;;;9.07;4.63;;;23.80;33.50;;;;;;6108202;28;80584;-65
2021/03/28 02:23:39;;;;;;;7.05;3.83;;;23.80;33.70;;;;;;6106996;28;80536;-66
2021/03/28 02:26:40;;;;;;;7.82;4.07;;;23.80;33.40;;;;;;6108055;28;81547;-66
2021/03/28 02:29:40;;;;;;;5.97;3.72;;;23.80;33.30;;;;;;6107026;28;80560;-66
2021/03/28 02:32:41;;;;;;;5.85;3.70;;;23.80;33.50;;;;;;6107270;28;80687;-65
2021/03/28 02:35:41;;;;;;;7.10;3.92;;;23.80;33.50;;;;;;6108972;28;80567;-65
2021/03/28 02:38:42;;;;;;;7.43;3.85;;;23.80;33.70;;;;;;6089241;28;81463;-65
2021/03/28 02:41:42;;;;;;;6.07;3.55;;;23.80;33.50;;;;;;6104759;28;80762;-65
2021/03/28 02:44:44;;;;;;;7.50;4.10;;;23.80;33.50;;;;;;6107300;28;80462;-65
2021/03/28 02:47:44;;;;;;;6.30;3.40;;;23.80;33.30;;;;;;6106571;28;81037;-65
2021/03/28 02:50:45;;;;;;;7.20;4.13;;;23.80;33.50;;;;;;6108379;28;81633;-66
2021/03/28 02:53:45;;;;;;;7.45;3.85;;;23.80;33.40;;;;;;6107695;28;80967;-66
2021/03/28 02:56:46;;;;;;;6.13;3.28;;;23.80;33.50;;;;;;6107394;28;80785;-66
2021/03/28 02:59:47;;;;;;;9.35;4.03;;;23.80;33.10;;;;;;6100719;28;81180;-67
2021/03/28 03:02:47;;;;;;;6.68;3.83;;;23.80;33.60;;;;;;6107407;28;80978;-67
2021/03/28 03:05:48;;;;;;;8.32;4.22;;;23.80;33.30;;;;;;6107059;28;81569;-67
2021/03/28 03:08:48;;;;;;;7.22;4.20;;;23.80;33.20;;;;;;6107484;28;81016;-67
2021/03/28 03:11:49;;;;;;;6.85;4.10;;;23.80;33.20;;;;;;6106983;28;81198;-67
2021/03/28 03:14:49;;;;;;;6.45;4.00;;;23.80;33.30;;;;;;6106581;28;80754;-67
2021/03/28 03:17:50;;;;;;;7.65;4.35;;;23.80;32.90;;;;;;6090400;28;83346;-67
2021/03/28 03:20:51;;;;;;;8.35;3.58;;;23.80;33.20;;;;;;6107157;28;81047;-67
2021/03/28 03:23:51;;;;;;;8.27;3.90;;;23.80;32.90;;;;;;6095109;28;80782;-67
2021/03/28 03:26:52;;;;;;;7.53;3.67;;;23.80;33.30;;;;;;6106000;28;80687;-66
2021/03/28 03:29:52;;;;;;;6.72;4.20;;;23.80;33.40;;;;;;6074993;28;81808;-67
2021/03/28 03:32:53;;;;;;;6.97;4.22;;;23.80;33.50;;;;;;6106329;28;80883;-67
2021/03/28 03:35:53;;;;;;;5.78;3.83;;;23.80;32.70;;;;;;6107005;28;83469;-67
2021/03/28 03:38:54;;;;;;;6.10;3.20;;;23.80;33.40;;;;;;6107780;28;80678;-65
2021/03/28 03:41:54;;;;;;;6.57;3.97;;;23.70;32.40;;;;;;6104802;28;80535;-65
2021/03/28 03:44:55;;;;;;;7.07;3.70;;;23.70;32.60;;;;;;6105137;28;81076;-65
2021/03/28 03:47:55;;;;;;;5.82;4.00;;;23.70;32.60;;;;;;6105230;28;81411;-66
2021/03/28 03:50:56;;;;;;;6.05;3.75;;;23.70;32.50;;;;;;6106200;28;80994;-66
2021/03/28 03:53:57;;;;;;;7.00;3.65;;;23.70;32.70;;;;;;6104861;28;82012;-66
2021/03/28 03:56:57;;;;;;;5.68;3.30;;;23.70;32.10;;;;;;6107970;28;80741;-65
2021/03/28 03:59:58;;;;;;;6.22;3.58;;;23.80;31.80;;;;;;6104888;28;82768;-65
2021/03/28 04:02:58;;;;;;;6.75;3.35;;;23.80;31.90;;;;;;6105780;28;80363;-66
2021/03/28 04:05:59;;;;;;;6.70;3.60;;;23.80;32.30;;;;;;6103313;28;81134;-65
2021/03/28 04:08:59;;;;;;;4.70;3.08;;;23.80;32.10;;;;;;6102643;28;80772;-66
2021/03/28 04:12:00;;;;;;;6.72;3.92;;;23.80;32.10;;;;;;6099504;28;81359;-65
2021/03/28 04:15:00;;;;;;;8.65;4.15;;;23.80;32.10;;;;;;6097572;28;80686;-64
2021/03/28 04:18:01;;;;;;;7.18;3.53;;;23.80;32.10;;;;;;6088240;28;83644;-64
2021/03/28 04:21:01;;;;;;;7.05;3.78;;;23.80;32.10;;;;;;6105947;28;81407;-64
2021/03/28 04:24:02;;;;;;;7.13;3.72;;;23.80;31.90;;;;;;6104597;28;81626;-66
2021/03/28 04:27:03;;;;;;;5.15;3.72;;;23.80;31.80;;;;;;6104802;28;80162;-65
2021/03/28 04:30:03;;;;;;;6.93;4.13;;;23.80;31.80;;;;;;6105659;28;80512;-65
2021/03/28 04:33:04;;;;;;;5.70;3.72;;;23.90;31.80;;;;;;6104399;28;80665;-65
2021/03/28 04:36:04;;;;;;;8.40;4.07;;;23.90;31.80;;;;;;6094128;28;81108;-66
2021/03/28 04:39:06;;;;;;;4.93;2.97;;;23.90;31.70;;;;;;6104527;28;80250;-65
2021/03/28 04:42:07;;;;;;;6.22;3.92;;;23.90;31.90;;;;;;6100786;28;80923;-65
2021/03/28 04:45:07;;;;;;;6.32;3.60;;;23.90;31.70;;;;;;6104096;28;81150;-64
2021/03/28 04:48:08;;;;;;;7.28;3.63;;;23.90;31.70;;;;;;6077805;28;80765;-64
2021/03/28 04:51:09;;;;;;;7.05;3.80;;;23.90;31.60;;;;;;6102652;28;80835;-64
2021/03/28 04:54:09;;;;;;;6.45;3.83;;;23.90;31.50;;;;;;6104583;28;81386;-64
2021/03/28 04:57:10;;;;;;;5.63;3.53;;;23.90;31.50;;;;;;6104108;28;83352;-65
2021/03/28 05:00:10;;;;;;;8.45;4.38;;;23.90;31.50;;;;;;6103550;28;81395;-65
2021/03/28 05:03:11;;;;;;;6.90;3.80;;;23.90;31.60;;;;;;6102045;28;81926;-65
2021/03/28 05:06:11;;;;;;;7.78;4.10;;;23.90;31.40;;;;;;6098355;28;82229;-65
2021/03/28 05:09:12;;;;;;;7.82;3.90;;;23.90;31.50;;;;;;6084071;28;83103;-65
2021/03/28 05:12:12;;;;;;;8.82;4.13;;;24.00;31.50;;;;;;6102755;28;81359;-65
2021/03/28 05:15:13;;;;;;;7.18;4.13;;;24.00;31.60;;;;;;6104940;28;80621;-65
2021/03/28 05:18:14;;;;;;;7.50;4.00;;;24.00;31.70;;;;;;6103867;28;80560;-64
2021/03/28 05:21:14;;;;;;;7.78;4.28;;;24.00;31.70;;;;;;6104381;28;80674;-63
2021/03/28 05:24:15;;;;;;;8.82;4.20;;;24.00;31.70;;;;;;6104881;28;81041;-64
2021/03/28 05:27:15;;;;;;;8.05;4.43;;;24.00;31.60;;;;;;6102816;28;81367;-63
2021/03/28 05:30:16;;;;;;;6.68;3.35;;;24.00;31.50;;;;;;6098871;28;83345;-64
2021/03/28 05:33:16;;;;;;;8.30;4.10;;;24.00;31.50;;;;;;6103727;28;80823;-64
2021/03/28 05:36:17;;;;;;;7.15;3.67;;;24.00;31.80;;;;;;6104853;28;81811;-64
2021/03/28 05:39:17;;;;;;;235.60;82.70;;;24.00;31.70;;;;;;6110000;28;80305;-66
2021/03/28 05:42:18;;;;;;;499.90;196.40;;;24.00;32.60;;;;;;6106200;28;83171;-66
2021/03/28 05:45:18;;;;;;;608.60;258.40;;;24.00;32.70;;;;;;6102977;28;85887;-66
2021/03/28 05:48:19;;;;;;;410.40;161.90;;;24.00;33.10;;;;;;6102689;28;96131;-67
2021/03/28 05:51:20;;;;;;;366.02;142.15;;;24.00;32.80;;;;;;6094367;28;85820;-66
2021/03/28 05:54:20;;;;;;;325.42;125.28;;;24.00;32.50;;;;;;6102928;28;86573;-66
2021/03/28 05:57:21;;;;;;;279.13;111.38;;;24.00;32.40;;;;;;6099531;28;91084;-67
2021/03/28 06:00:21;;;;;;;269.23;97.25;;;24.00;32.60;;;;;;6100594;28;86528;-66
2021/03/28 06:03:22;;;;;;;229.18;89.22;;;24.00;32.80;;;;;;6102984;28;85879;-66
2021/03/28 06:06:22;;;;;;;228.20;81.50;;;24.10;32.80;;;;;;6102830;28;84260;-69
2021/03/28 06:09:23;;;;;;;463.30;171.27;;;24.10;33.10;;;;;;6105283;28;83750;-67
2021/03/28 06:12:23;;;;;;;447.90;165.18;;;24.10;33.20;;;;;;6102430;28;85753;-67
2021/03/28 06:15:24;;;;;;;744.13;324.65;;;24.00;33.30;;;;;;6100998;28;94725;-67
2021/03/28 06:18:24;;;;;;;728.05;314.00;;;24.10;33.50;;;;;;6083092;28;85990;-67
2021/03/28 06:21:25;;;;;;;540.17;211.10;;;24.10;33.60;;;;;;6102671;28;85960;-67
2021/03/28 06:24:26;;;;;;;492.40;185.57;;;24.10;33.20;;;;;;6101721;28;85693;-67
2021/03/28 06:27:26;;;;;;;446.45;167.75;;;24.10;32.90;;;;;;6102715;28;85819;-67
2021/03/28 06:30:27;;;;;;;421.35;155.18;;;24.00;33.00;;;;;;6098516;28;85624;-67
2021/03/28 06:33:27;;;;;;;426.23;153.98;;;24.00;34.00;;;;;;6103191;28;85556;-67
2021/03/28 06:36:28;;;;;;;357.40;132.57;;;24.10;32.90;;;;;;6099661;28;86161;-68
2021/03/28 06:39:28;;;;;;;341.90;132.88;;;24.10;35.60;;;;;;6101604;28;85867;-68
2021/03/28 06:42:29;;;;;;;338.10;126.60;;;24.10;33.90;;;;;;6101873;28;94698;-68
2021/03/28 06:45:30;;;;;;;322.80;118.15;;;24.10;34.40;;;;;;6101355;28;85679;-68
2021/03/28 06:49:39;;;;;;;273.52;105.18;;;24.10;34.10;;;;;;6207495;27;76178;-68
2021/03/28 06:52:42;;;;;;;250.15;96.97;;;24.10;35.00;;;;;;6167497;28;86065;-68
2021/03/28 06:55:42;;;;;;;230.98;89.15;;;24.10;35.10;;;;;;6172586;27;85461;-69
2021/03/28 06:58:43;;;;;;;230.20;86.00;;;24.10;35.40;;;;;;6178355;27;82749;-68
2021/03/28 07:01:43;;;;;;;204.13;80.03;;;24.10;35.40;;;;;;6159821;27;83322;-67
2021/03/28 07:04:44;;;;;;;192.57;75.55;;;24.10;35.50;;;;;;6148709;27;83746;-70
2021/03/28 07:07:44;;;;;;;193.95;71.68;;;24.10;35.70;;;;;;6178567;27;83605;-69
2021/03/28 07:10:45;;;;;;;177.43;70.57;;;24.10;35.90;;;;;;6171226;27;83278;-70
2021/03/28 07:13:45;;;;;;;168.45;66.28;;;24.20;36.20;;;;;;6166197;28;84252;-70
2021/03/28 07:16:46;;;;;;;160.23;63.63;;;24.20;35.60;;;;;;6175044;27;83324;-67
2021/03/28 07:19:46;;;;;;;147.52;58.88;;;24.20;35.50;;;;;;6178518;28;84300;-68
2021/03/28 07:22:47;;;;;;;139.05;53.92;;;24.20;35.10;;;;;;6174520;28;83889;-67
2021/03/28 07:25:48;;;;;;;139.02;53.38;;;24.20;34.90;;;;;;6154512;27;83248;-67
2021/03/28 07:28:48;;;;;;;117.97;49.45;;;24.20;35.00;;;;;;6169325;28;83047;-68
2021/03/28 07:31:49;;;;;;;123.05;48.33;;;24.20;34.80;;;;;;6173476;27;83746;-68
2021/03/28 07:34:49;;;;;;;120.00;45.90;;;24.20;35.00;;;;;;6173304;27;83527;-67
2021/03/28 07:37:50;;;;;;;115.07;42.45;;;24.10;35.10;;;;;;6165474;28;83527;-68
2021/03/28 07:40:50;;;;;;;103.15;39.53;;;24.20;35.30;;;;;;6164987;28;84048;-67
2021/03/28 07:43:51;;;;;;;98.97;38.67;;;24.20;34.90;;;;;;6170197;27;83405;-68
2021/03/28 07:46:51;;;;;;;88.35;34.65;;;24.10;34.60;;;;;;6176881;28;84478;-66
2021/03/28 07:49:52;;;;;;;84.65;33.20;;;24.20;34.50;;;;;;6160320;27;83558;-68
2021/03/28 07:52:54;;;;;;;85.88;34.22;;;24.20;35.00;;;;;;6173266;28;84475;-67
2021/03/28 07:55:54;;;;;;;82.93;33.28;;;24.10;34.60;;;;;;6166055;27;83804;-67
2021/03/28 07:58:55;;;;;;;77.85;30.45;;;24.10;35.30;;;;;;6167548;28;84488;-67
2021/03/28 08:01:55;;;;;;;71.10;30.05;;;24.10;35.20;;;;;;6148061;28;84817;-67
2021/03/28 08:04:56;;;;;;;61.65;27.92;;;24.10;35.50;;;;;;6154406;27;83291;-67
2021/03/28 08:07:56;;;;;;;62.72;27.55;;;24.10;35.40;;;;;;6158032;28;84228;-67
2021/03/28 08:10:57;;;;;;;60.38;24.98;;;24.10;34.40;;;;;;6145882;27;83282;-68
2021/03/28 08:13:58;;;;;;;55.92;23.73;;;24.10;35.60;;;;;;6154007;28;83858;-68
2021/03/28 08:17:00;;;;;;;55.60;23.55;;;24.10;36.10;;;;;;6155373;28;88737;-69
2021/03/28 08:20:01;;;;;;;47.95;21.45;;;24.10;35.50;;;;;;6149415;28;83155;-67
2021/03/28 08:23:01;;;;;;;44.88;19.58;;;24.10;34.60;;;;;;6126057;28;83465;-68
2021/03/28 08:26:02;;;;;;;58.47;21.20;;;24.10;34.60;;;;;;6150883;27;83550;-68
2021/03/28 08:29:02;;;;;;;44.88;19.00;;;24.10;34.90;;;;;;6151467;28;83833;-68
2021/03/28 08:32:03;;;;;;;41.72;18.90;;;24.10;34.40;;;;;;6152878;27;83156;-68
2021/03/28 08:35:04;;;;;;;38.50;16.17;;;24.10;34.30;;;;;;6150902;27;88541;-69
2021/03/28 08:38:04;;;;;;;39.35;16.13;;;24.10;34.30;;;;;;6151134;27;83397;-69
2021/03/28 08:41:05;;;;;;;38.55;16.38;;;24.10;35.00;;;;;;6151598;28;83126;-68
2021/03/28 08:44:05;;;;;;;41.15;16.45;;;24.10;35.40;;;;;;6143188;28;83845;-69
2021/03/28 08:47:06;;;;;;;36.15;15.43;;;24.10;34.60;;;;;;6152871;28;84256;-68
2021/03/28 08:50:06;;;;;;;34.67;15.48;;;24.10;34.30;;;;;;6155411;28;85464;-68
2021/03/28 08:53:07;;;;;;;30.80;13.57;;;24.10;34.00;;;;;;6145959;27;83457;-69
2021/03/28 08:56:07;;;;;;;33.75;14.40;;;24.10;34.00;;;;;;6157011;27;84273;-68
2021/03/28 08:59:08;;;;;;;38.72;14.32;;;24.20;34.50;;;;;;6158998;27;83730;-70
2021/03/28 09:02:09;;;;;;;27.27;13.77;;;24.10;34.30;;;;;;6151075;27;85562;-69
2021/03/28 09:05:09;;;;;;;26.80;10.35;;;24.10;34.20;;;;;;6148271;28;82867;-70
2021/03/28 09:08:10;;;;;;;24.60;8.85;;;24.10;31.70;;;;;;6148425;28;83427;-68
2021/03/28 09:11:10;;;;;;;16.08;7.70;;;23.90;30.20;;;;;;6152526;27;84097;-68
2021/03/28 09:14:11;;;;;;;19.30;7.63;;;23.80;29.90;;;;;;6155505;27;80381;-69
2021/03/28 09:17:11;;;;;;;13.80;6.88;;;23.70;29.50;;;;;;6145430;27;81670;-69
2021/03/28 09:20:12;;;;;;;14.50;6.80;;;23.60;29.20;;;;;;6158478;28;81801;-69
2021/03/28 09:23:12;;;;;;;12.75;6.25;;;23.60;29.40;;;;;;6160202;27;80774;-68
2021/03/28 09:26:13;;;;;;;14.98;5.90;;;23.50;29.50;;;;;;6148473;28;82315;-70
2021/03/28 09:29:14;;;;;;;12.85;5.65;;;23.60;30.40;;;;;;6155776;28;81234;-66
2021/03/28 09:32:14;;;;;;;21.08;7.40;;;23.70;31.40;;;;;;6152332;27;82607;-67
2021/03/28 09:35:15;;;;;;;15.15;6.15;;;23.80;31.40;;;;;;6149117;27;81030;-70
2021/03/28 09:38:16;;;;;;;12.07;6.40;;;23.90;32.40;;;;;;6152688;28;81548;-67
2021/03/28 09:41:16;;;;;;;12.80;5.75;;;23.90;32.20;;;;;;6154280;27;80678;-69
2021/03/28 09:44:17;;;;;;;10.80;5.75;;;23.90;32.20;;;;;;6159226;27;83409;-67
2021/03/28 09:47:17;;;;;;;10.27;5.22;;;23.90;32.70;;;;;;6157153;27;80713;-68
2021/03/28 09:50:18;;;;;;;11.07;4.95;;;23.90;31.40;;;;;;6158923;27;80342;-68
2021/03/28 09:53:18;;;;;;;12.60;5.90;;;24.00;32.00;;;;;;6154507;28;80373;-68
2021/03/28 09:56:19;;;;;;;11.20;5.30;;;24.00;31.70;;;;;;6151723;27;81823;-68
2021/03/28 09:59:19;;;;;;;9.25;4.80;;;24.00;31.30;;;;;;6141719;27;80518;-68
2021/03/28 10:02:20;;;;;;;13.05;5.95;;;24.00;31.20;;;;;;6151468;27;80256;-68
2021/03/28 10:05:20;;;;;;;24.15;8.27;;;24.00;31.80;;;;;;6152270;27;81445;-68
2021/03/28 10:08:21;;;;;;;20.73;6.60;;;24.00;33.50;;;;;;6155318;28;80810;-70
2021/03/28 10:11:22;;;;;;;33.33;12.15;;;24.10;31.90;;;;;;6158030;27;81120;-67
2021/03/28 10:14:22;;;;;;;36.78;8.45;;;24.20;33.60;;;;;;6146057;28;85450;-68
2021/03/28 10:17:24;;;;;;;23.73;9.32;;;24.20;31.90;;;;;;6131048;27;82846;-68
2021/03/28 10:20:24;;;;;;;28.27;11.05;;;24.20;32.30;;;;;;6148365;27;80971;-68
2021/03/28 10:23:25;;;;;;;31.38;10.48;;;24.30;33.30;;;;;;6142406;28;83909;-67
2021/03/28 10:26:25;;;;;;;34.38;12.50;;;24.30;32.70;;;;;;6152341;28;83601;-65
2021/03/28 10:29:29;;;;;;;36.67;13.70;;;24.30;33.20;;;;;;6152558;28;83590;-66
2021/03/28 10:32:30;;;;;;;33.15;13.43;;;24.40;33.60;;;;;;6149722;28;86419;-66
2021/03/28 10:35:30;;;;;;;37.80;13.85;;;24.40;34.10;;;;;;6150770;27;83478;-66
2021/03/28 10:38:31;;;;;;;37.00;13.68;;;24.40;34.60;;;;;;6151315;28;83812;-67
2021/03/28 10:41:34;;;;;;;31.05;12.27;;;24.50;34.70;;;;;;6149718;27;83367;-66
2021/03/28 10:44:35;;;;;;;35.03;12.38;;;24.50;35.60;;;;;;6158424;27;84302;-66
2021/03/28 10:47:35;;;;;;;30.65;11.93;;;24.50;36.30;;;;;;6155297;27;83809;-67
2021/03/28 10:50:36;;;;;;;28.50;11.73;;;24.60;37.20;;;;;;6152563;28;84173;-67
2021/03/28 10:53:36;;;;;;;26.67;11.93;;;24.60;37.40;;;;;;6152651;27;83380;-70
2021/03/28 10:56:37;;;;;;;28.20;10.93;;;24.60;39.60;;;;;;6153894;28;83384;-68
2021/03/28 10:59:37;;;;;;;26.33;10.80;;;24.60;39.00;;;;;;6154674;27;83774;-77
2021/03/28 11:02:38;;;;;;;23.33;10.10;;;24.60;37.80;;;;;;6144896;28;85226;-73
2021/03/28 11:05:38;;;;;;;24.45;9.25;;;24.60;36.30;;;;;;6147455;27;85640;-70
2021/03/28 11:08:39;;;;;;;19.00;7.00;;;24.60;35.70;;;;;;6148776;28;83208;-68
2021/03/28 11:11:40;;;;;;;13.70;6.10;;;24.40;30.50;;;;;;6149534;28;81673;-70
2021/03/28 11:14:40;;;;;;;17.42;5.28;;;24.30;27.90;;;;;;6156078;27;81008;-72
2021/03/28 11:17:41;;;;;;;10.77;4.35;;;24.20;27.80;;;;;;6153567;27;81196;-74
2021/03/28 11:20:41;;;;;;;10.80;4.55;;;24.10;26.80;;;;;;6147966;27;83784;-71
2021/03/28 11:23:43;;;;;;;7.85;4.22;;;23.90;26.60;;;;;;6150902;27;81062;-72
2021/03/28 11:26:43;;;;;;;8.27;4.35;;;23.80;26.70;;;;;;6154903;27;80455;-73
2021/03/28 11:29:44;;;;;;;6.75;3.55;;;23.80;27.60;;;;;;6152204;28;81174;-71
2021/03/28 11:32:45;;;;;;;8.88;3.97;;;23.80;26.90;;;;;;6153861;28;83166;-72
2021/03/28 11:35:45;;;;;;;6.20;3.33;;;23.60;25.70;;;;;;6156666;27;81928;-72
2021/03/28 11:38:46;;;;;;;4.53;3.00;;;23.60;26.60;;;;;;6158222;28;81082;-71
2021/03/28 11:41:46;;;;;;;6.22;3.42;;;23.60;26.10;;;;;;6162308;27;81594;-72
2021/03/28 11:44:47;;;;;;;8.85;3.40;;;23.50;25.70;;;;;;6157882;27;82212;-71
2021/03/28 11:47:48;;;;;;;6.50;3.03;;;23.50;26.70;;;;;;6157728;27;80945;-70
2021/03/28 11:50:48;;;;;;;8.57;3.22;;;23.50;25.40;;;;;;6154985;28;81238;-73
2021/03/28 11:53:49;;;;;;;5.80;2.50;;;23.40;26.60;;;;;;6156811;27;80493;-73
2021/03/28 11:56:49;;;;;;;6.85;3.40;;;23.40;26.60;;;;;;6158892;28;80930;-74
2021/03/28 11:59:52;;;;;;;6.63;3.60;;;23.50;26.00;;;;;;6154853;27;86427;-68
2021/03/28 12:02:53;;;;;;;7.05;3.10;;;23.40;26.00;;;;;;6156106;28;80452;-70
2021/03/28 12:05:53;;;;;;;12.15;6.82;;;23.40;26.10;;;;;;6140948;27;81254;-70
2021/03/28 12:08:54;;;;;;;8.52;4.82;;;23.40;25.90;;;;;;6156562;28;80551;-69
2021/03/28 12:11:54;;;;;;;6.40;3.85;;;23.40;26.20;;;;;;6156707;27;81557;-69
2021/03/28 12:14:55;;;;;;;9.05;3.90;;;23.40;25.90;;;;;;6156752;28;80575;-69
2021/03/28 12:17:56;;;;;;;8.48;4.07;;;23.40;25.90;;;;;;6157435;27;81122;-70
2021/03/28 12:20:56;;;;;;;14.35;3.95;;;23.30;26.00;;;;;;6156459;27;81399;-71
2021/03/28 12:23:57;;;;;;;6.25;3.65;;;23.40;26.70;;;;;;6154076;28;81777;-72
2021/03/28 12:26:58;;;;;;;9.65;3.90;;;23.50;26.90;;;;;;6157765;27;81507;-71
2021/03/28 12:29:59;;;;;;;8.02;3.88;;;23.60;27.50;;;;;;6136874;27;80734;-70
2021/03/28 12:32:59;;;;;;;9.70;3.53;;;23.70;27.30;;;;;;6156200;27;82562;-70
2021/03/28 12:36:00;;;;;;;6.88;3.33;;;23.70;27.20;;;;;;6158869;28;80692;-70
2021/03/28 12:39:00;;;;;;;5.45;3.75;;;23.80;27.10;;;;;;6164860;27;82637;-74
2021/03/28 12:42:01;;;;;;;4.88;3.17;;;23.80;27.80;;;;;;6158369;28;80782;-72
2021/03/28 12:45:01;;;;;;;5.28;3.28;;;23.80;26.90;;;;;;6155878;27;80720;-74
2021/03/28 12:48:02;;;;;;;5.65;2.92;;;23.80;27.40;;;;;;6160661;28;80759;-73
2021/03/28 12:51:03;;;;;;;7.38;3.45;;;23.90;27.80;;;;;;6159460;27;81731;-78
2021/03/28 12:54:03;;;;;;;6.13;3.42;;;23.90;27.70;;;;;;6159476;27;81609;-73
2021/03/28 12:57:04;;;;;;;4.22;2.92;;;23.90;27.90;;;;;;6157048;27;81005;-73
2021/03/28 13:00:04;;;;;;;6.03;3.58;;;23.90;27.70;;;;;;6159186;28;81160;-75
2021/03/28 13:03:05;;;;;;;9.45;4.38;;;24.00;28.10;;;;;;6159935;28;82476;-73
2021/03/28 13:06:05;;;;;;;6.18;3.85;;;24.00;28.50;;;;;;6157610;27;82517;-75
2021/03/28 13:09:06;;;;;;;6.65;3.83;;;24.00;28.60;;;;;;6150845;28;80457;-69
2021/03/28 13:12:07;;;;;;;7.32;3.80;;;24.00;28.40;;;;;;6153609;27;80782;-73
2021/03/28 13:15:07;;;;;;;6.03;3.60;;;24.00;28.10;;;;;;6153404;27;80348;-72
2021/03/28 13:18:08;;;;;;;5.82;3.42;;;24.00;29.00;;;;;;6140561;27;80549;-70
2021/03/28 13:21:08;;;;;;;8.45;4.13;;;24.00;28.60;;;;;;6144683;27;80806;-69
2021/03/28 13:24:09;;;;;;;5.38;3.25;;;24.00;28.70;;;;;;6152148;27;80612;-69
2021/03/28 13:27:09;;;;;;;7.32;3.45;;;24.00;29.10;;;;;;6151102;28;82911;-70
2021/03/28 13:30:10;;;;;;;6.22;3.67;;;24.00;28.50;;;;;;6163823;27;80548;-69
2021/03/28 13:33:11;;;;;;;6.80;3.83;;;24.00;28.80;;;;;;6169855;27;80912;-70
2021/03/28 13:36:11;;;;;;;9.48;3.53;;;24.00;28.60;;;;;;6161163;27;80458;-70
2021/03/28 13:39:12;;;;;;;5.47;3.25;;;24.00;28.50;;;;;;6143583;28;80732;-70
2021/03/28 13:42:12;;;;;;;8.00;3.40;;;24.00;28.30;;;;;;6154851;28;80976;-71
2021/03/28 13:45:13;;;;;;;8.60;4.38;;;24.00;28.30;;;;;;6145994;28;81750;-70
2021/03/28 13:48:14;;;;;;;10.30;4.18;;;23.90;28.50;;;;;;6140928;27;83742;-69
2021/03/28 13:51:14;;;;;;;8.13;3.97;;;23.90;28.60;;;;;;6151879;27;80461;-70
2021/03/28 13:54:16;;;;;;;7.53;3.78;;;23.90;28.70;;;;;;6154348;27;81631;-70
2021/03/28 13:57:16;;;;;;;7.70;3.40;;;23.90;29.00;;;;;;6147611;28;80886;-70
2021/03/28 14:00:17;;;;;;;7.93;4.05;;;23.90;28.80;;;;;;6161255;28;81402;-70
2021/03/28 14:03:17;;;;;;;10.35;3.33;;;23.90;28.80;;;;;;6149537;27;80972;-71
2021/03/28 14:06:18;;;;;;;7.63;3.53;;;23.90;28.80;;;;;;6165360;28;80827;-73
2021/03/28 14:09:18;;;;;;;5.90;3.88;;;23.90;28.60;;;;;;6152473;27;82169;-70
2021/03/28 14:12:20;;;;;;;7.53;3.70;;;23.90;28.70;;;;;;6148498;28;81600;-70
2021/03/28 14:15:21;;;;;;;8.48;4.55;;;23.90;28.10;;;;;;6153613;28;82241;-69
2021/03/28 14:18:21;;;;;;;7.20;4.03;;;23.90;28.40;;;;;;6153370;27;81409;-67
2021/03/28 14:21:22;;;;;;;9.65;5.25;;;23.90;28.20;;;;;;6148371;27;80953;-68
2021/03/28 14:24:22;;;;;;;74.15;25.40;;;23.80;28.50;;;;;;6158722;27;80268;-68
2021/03/28 14:27:30;;;;;;;160.65;60.00;;;23.80;28.30;;;;;;6145224;28;83508;-68
2021/03/28 14:30:31;;;;;;;262.40;95.60;;;23.90;28.60;;;;;;6151457;27;83659;-69
2021/03/28 14:33:32;;;;;;;240.05;88.15;;;23.80;28.60;;;;;;6142008;27;84524;-68
2021/03/28 14:36:32;;;;;;;200.73;72.32;;;23.80;28.20;;;;;;6153816;28;83840;-68
2021/03/28 14:39:33;;;;;;;155.93;59.22;;;23.80;29.00;;;;;;6133281;27;83544;-70
2021/03/28 14:42:33;;;;;;;182.50;62.78;;;23.90;28.20;;;;;;6147290;27;84209;-68
2021/03/28 14:45:34;;;;;;;229.98;83.15;;;23.90;28.80;;;;;;6128387;27;83296;-70
2021/03/28 14:48:34;;;;;;;199.73;74.68;;;23.90;28.00;;;;;;6154107;28;85754;-68
2021/03/28 14:51:35;;;;;;;167.25;64.47;;;23.80;28.00;;;;;;6159669;27;83568;-68
2021/03/28 14:54:36;;;;;;;149.80;54.65;;;23.80;28.20;;;;;;6136686;27;83522;-69
2021/03/28 14:57:36;;;;;;;124.93;46.90;;;23.90;28.30;;;;;;6136848;28;83382;-69
2021/03/28 15:00:37;;;;;;;113.82;43.38;;;23.90;28.40;;;;;;6145928;28;86499;-66
2021/03/28 15:03:37;;;;;;;105.15;35.85;;;23.90;28.50;;;;;;6146678;27;83068;-67
2021/03/28 15:06:38;;;;;;;84.22;32.20;;;23.90;28.60;;;;;;6154346;27;83756;-68
2021/03/28 15:09:38;;;;;;;72.82;26.48;;;23.90;28.70;;;;;;6156960;28;84006;-70
2021/03/28 15:12:39;;;;;;;59.42;23.70;;;23.90;28.40;;;;;;6153263;27;83297;-69
2021/03/28 15:15:39;;;;;;;46.47;19.88;;;23.90;28.10;;;;;;6152807;28;83591;-69
2021/03/28 15:18:40;;;;;;;50.85;18.80;;;23.80;27.70;;;;;;6152105;28;83856;-69
2021/03/28 15:21:40;;;;;;;50.15;16.92;;;23.80;28.00;;;;;;6154212;27;83377;-69
2021/03/28 15:24:41;;;;;;;45.65;17.63;;;23.80;28.30;;;;;;6151467;28;89630;-69
2021/03/28 15:27:42;;;;;;;42.97;16.02;;;23.80;28.30;;;;;;6147667;27;83784;-68